sensor_id;sensor_type;location;lat;lon;timestamp;temperature;humidity
30134;DHT22;16946;49.984;10.672;2023-09-19T00:00:31;16.00;99.90
30134;DHT22;16946;49.984;10.672;2023-09-19T00:01:04;16.10;99.90
30134;DHT22;16946;49.984;10.672;2023-09-19T00:01:36;16.10;99.90
30134;DHT22;16946;49.984;10.672;2023-09-19T00:02:07;16.10;99.90
30134;DHT22;16946;49.984;10.672;2023-09-19T00:02:39;16.10;99.90
30134;DHT22;16946;49.984;10.672;2023-09-19T00:03:10;16.10;99.90
30134;DHT22;16946;49.984;10.672;2023-09-19T00:03:41;16.10;99.90
30134;DHT22;16946;49.984;10.672;2023-09-19T00:04:13;16.10;99.90
30134;DHT22;16946;49.984;10.672;2023-09-19T00:04:45;16.10;99.90
30134;DHT22;16946;49.984;10.672;2023-09-19T00:05:15;16.00;99.90
30134;DHT22;16946;49.984;10.672;2023-09-19T00:05:46;16.10;99.90
30134;DHT22;16946;49.984;10.672;2023-09-19T00:06:17;16.00;99.90
30134;DHT22;16946;49.984;10.672;2023-09-19T00:06:48;16.00;99.90
30134;DHT22;16946;49.984;10.672;2023-09-19T00:07:20;16.00;99.90
30134;DHT22;16946;49.984;10.672;2023-09-19T00:07:52;16.00;99.90
30134;DHT22;16946;49.984;10.672;2023-09-19T00:08:28;16.00;99.90
30134;DHT22;16946;49.984;10.672;2023-09-19T00:08:59;16.00;99.90
30134;DHT22;16946;49.984;10.672;2023-09-19T00:09:30;15.90;99.90
30134;DHT22;16946;49.984;10.672;2023-09-19T00:10:01;15.90;99.90
30134;DHT22;16946;49.984;10.672;2023-09-19T00:10:33;15.90;99.90
30134;DHT22;16946;49.984;10.672;2023-09-19T00:11:06;15.90;99.90
30134;DHT22;16946;49.984;10.672;2023-09-19T00:11:38;15.80;99.90
30134;DHT22;16946;49.984;10.672;2023-09-19T00:12:09;15.80;99.90
30134;DHT22;16946;49.984;10.672;2023-09-19T00:12:43;15.80;99.90
30134;DHT22;16946;49.984;10.672;2023-09-19T00:13:14;15.80;99.90
30134;DHT22;16946;49.984;10.672;2023-09-19T00:13:47;15.80;99.90
30134;DHT22;16946;49.984;10.672;2023-09-19T00:14:20;15.80;99.90
30134;DHT22;16946;49.984;10.672;2023-09-19T00:14:50;15.80;99.90
30134;DHT22;16946;49.984;10.672;2023-09-19T00:15:23;15.80;99.90
30134;DHT22;16946;49.984;10.672;2023-09-19T00:15:53;15.80;99.90
30134;DHT22;16946;49.984;10.672;2023-09-19T00:16:26;15.80;99.90
30134;DHT22;16946;49.984;10.672;2023-09-19T00:16:57;15.80;99.90
30134;DHT22;16946;49.984;10.672;2023-09-19T00:17:28;15.80;99.90
30134;DHT22;16946;49.984;10.672;2023-09-19T00:18:02;15.90;99.90
30134;DHT22;16946;49.984;10.672;2023-09-19T00:18:32;15.90;99.90
30134;DHT22;16946;49.984;10.672;2023-09-19T00:19:05;15.90;99.90
30134;DHT22;16946;49.984;10.672;2023-09-19T00:19:39;15.90;99.90
30134;DHT22;16946;49.984;10.672;2023-09-19T00:20:14;15.80;99.90
30134;DHT22;16946;49.984;10.672;2023-09-19T00:20:47;15.80;99.90
30134;DHT22;16946;49.984;10.672;2023-09-19T00:21:19;15.70;99.90
30134;DHT22;16946;49.984;10.672;2023-09-19T00:21:50;15.70;99.90
30134;DHT22;16946;49.984;10.672;2023-09-19T00:22:24;15.70;99.90
30134;DHT22;16946;49.984;10.672;2023-09-19T00:22:56;15.70;99.90
30134;DHT22;16946;49.984;10.672;2023-09-19T00:23:29;15.60;99.90
30134;DHT22;16946;49.984;10.672;2023-09-19T00:24:00;15.60;99.90
30134;DHT22;16946;49.984;10.672;2023-09-19T00:24:30;15.60;99.90
30134;DHT22;16946;49.984;10.672;2023-09-19T00:25:03;15.50;99.90
30134;DHT22;16946;49.984;10.672;2023-09-19T00:25:36;15.50;99.90
30134;DHT22;16946;49.984;10.672;2023-09-19T00:26:07;15.50;99.90
30134;DHT22;16946;49.984;10.672;2023-09-19T00:26:38;15.40;99.90
30134;DHT22;16946;49.984;10.672;2023-09-19T00:27:09;15.40;99.90
30134;DHT22;16946;49.984;10.672;2023-09-19T00:27:39;15.50;99.90
30134;DHT22;16946;49.984;10.672;2023-09-19T00:28:10;15.50;99.90
30134;DHT22;16946;49.984;10.672;2023-09-19T00:28:41;15.50;99.90
30134;DHT22;16946;49.984;10.672;2023-09-19T00:29:12;15.50;99.90
30134;DHT22;16946;49.984;10.672;2023-09-19T00:29:46;15.50;99.90
30134;DHT22;16946;49.984;10.672;2023-09-19T00:30:17;15.40;99.90
30134;DHT22;16946;49.984;10.672;2023-09-19T00:30:51;15.40;99.90
30134;DHT22;16946;49.984;10.672;2023-09-19T00:31:22;15.40;99.90
30134;DHT22;16946;49.984;10.672;2023-09-19T00:31:53;15.40;99.90
30134;DHT22;16946;49.984;10.672;2023-09-19T00:32:24;15.40;99.90
30134;DHT22;16946;49.984;10.672;2023-09-19T00:32:54;15.40;99.90
30134;DHT22;16946;49.984;10.672;2023-09-19T00:33:25;15.40;99.90
30134;DHT22;16946;49.984;10.672;2023-09-19T00:33:56;15.40;99.90
30134;DHT22;16946;49.984;10.672;2023-09-19T00:34:31;15.40;99.90
30134;DHT22;16946;49.984;10.672;2023-09-19T00:35:05;15.40;99.90
30134;DHT22;16946;49.984;10.672;2023-09-19T00:35:35;15.40;99.90
30134;DHT22;16946;49.984;10.672;2023-09-19T00:36:07;15.50;99.90
30134;DHT22;16946;49.984;10.672;2023-09-19T00:36:38;15.50;99.90
30134;DHT22;16946;49.984;10.672;2023-09-19T00:37:13;15.50;99.90
30134;DHT22;16946;49.984;10.672;2023-09-19T00:37:44;15.50;99.90
30134;DHT22;16946;49.984;10.672;2023-09-19T00:38:16;15.50;99.90
30134;DHT22;16946;49.984;10.672;2023-09-19T00:38:47;15.50;99.90
30134;DHT22;16946;49.984;10.672;2023-09-19T00:39:18;15.50;99.90
30134;DHT22;16946;49.984;10.672;2023-09-19T00:39:50;15.50;99.90
30134;DHT22;16946;49.984;10.672;2023-09-19T00:40:21;15.50;99.90
30134;DHT22;16946;49.984;10.672;2023-09-19T00:40:52;15.60;99.90
30134;DHT22;16946;49.984;10.672;2023-09-19T00:41:22;15.60;99.90
30134;DHT22;16946;49.984;10.672;2023-09-19T00:41:55;15.60;99.90
30134;DHT22;16946;49.984;10.672;2023-09-19T00:42:25;15.60;99.90
30134;DHT22;16946;49.984;10.672;2023-09-19T00:42:59;15.50;99.90
30134;DHT22;16946;49.984;10.672;2023-09-19T00:43:30;15.50;99.90
30134;DHT22;16946;49.984;10.672;2023-09-19T00:44:04;15.60;99.90
30134;DHT22;16946;49.984;10.672;2023-09-19T00:44:35;15.60;99.90
30134;DHT22;16946;49.984;10.672;2023-09-19T00:45:08;15.70;99.90
30134;DHT22;16946;49.984;10.672;2023-09-19T00:45:46;15.70;99.90
30134;DHT22;16946;49.984;10.672;2023-09-19T00:46:18;15.80;99.90
30134;DHT22;16946;49.984;10.672;2023-09-19T00:46:49;15.80;99.90
30134;DHT22;16946;49.984;10.672;2023-09-19T00:47:20;15.80;99.90
30134;DHT22;16946;49.984;10.672;2023-09-19T00:47:51;15.90;99.90
30134;DHT22;16946;49.984;10.672;2023-09-19T00:48:22;16.00;99.90
30134;DHT22;16946;49.984;10.672;2023-09-19T00:48:53;16.00;99.90
30134;DHT22;16946;49.984;10.672;2023-09-19T00:49:24;16.20;99.90
30134;DHT22;16946;49.984;10.672;2023-09-19T00:49:56;16.20;99.90
30134;DHT22;16946;49.984;10.672;2023-09-19T00:50:27;16.30;99.90
30134;DHT22;16946;49.984;10.672;2023-09-19T00:51:02;16.40;99.90
30134;DHT22;16946;49.984;10.672;2023-09-19T00:51:33;16.40;99.90
30134;DHT22;16946;49.984;10.672;2023-09-19T00:52:06;16.50;99.90
30134;DHT22;16946;49.984;10.672;2023-09-19T00:52:38;16.60;99.90
30134;DHT22;16946;49.984;10.672;2023-09-19T00:53:09;16.60;99.90
30134;DHT22;16946;49.984;10.672;2023-09-19T00:53:40;16.70;99.90
30134;DHT22;16946;49.984;10.672;2023-09-19T00:54:16;16.70;99.90
30134;DHT22;16946;49.984;10.672;2023-09-19T00:54:48;16.70;99.90
30134;DHT22;16946;49.984;10.672;2023-09-19T00:55:19;16.70;99.90
30134;DHT22;16946;49.984;10.672;2023-09-19T00:55:51;16.70;99.90
30134;DHT22;16946;49.984;10.672;2023-09-19T00:56:21;16.80;99.90
30134;DHT22;16946;49.984;10.672;2023-09-19T00:56:53;16.70;99.90
30134;DHT22;16946;49.984;10.672;2023-09-19T00:57:25;16.70;99.90
30134;DHT22;16946;49.984;10.672;2023-09-19T00:57:58;16.80;99.90
30134;DHT22;16946;49.984;10.672;2023-09-19T00:58:28;16.80;99.90
30134;DHT22;16946;49.984;10.672;2023-09-19T00:59:04;16.90;99.90
30134;DHT22;16946;49.984;10.672;2023-09-19T00:59:35;16.90;99.90
30134;DHT22;16946;49.984;10.672;2023-09-19T01:00:07;16.90;99.90
30134;DHT22;16946;49.984;10.672;2023-09-19T01:00:40;16.90;99.90
30134;DHT22;16946;49.984;10.672;2023-09-19T01:01:11;16.90;99.90
30134;DHT22;16946;49.984;10.672;2023-09-19T01:01:42;16.90;99.90
30134;DHT22;16946;49.984;10.672;2023-09-19T01:02:16;16.90;99.90
30134;DHT22;16946;49.984;10.672;2023-09-19T01:02:47;16.90;99.90
30134;DHT22;16946;49.984;10.672;2023-09-19T01:03:18;16.90;99.90
30134;DHT22;16946;49.984;10.672;2023-09-19T01:03:49;17.00;99.90
30134;DHT22;16946;49.984;10.672;2023-09-19T01:04:20;17.00;99.90
30134;DHT22;16946;49.984;10.672;2023-09-19T01:04:51;17.00;99.90
30134;DHT22;16946;49.984;10.672;2023-09-19T01:05:21;17.00;99.90
30134;DHT22;16946;49.984;10.672;2023-09-19T01:05:54;17.10;99.90
30134;DHT22;16946;49.984;10.672;2023-09-19T01:06:25;17.00;99.90
30134;DHT22;16946;49.984;10.672;2023-09-19T01:06:56;17.00;99.90
30134;DHT22;16946;49.984;10.672;2023-09-19T01:07:30;17.00;99.90
30134;DHT22;16946;49.984;10.672;2023-09-19T01:08:00;17.10;99.90
30134;DHT22;16946;49.984;10.672;2023-09-19T01:08:32;17.10;99.90
30134;DHT22;16946;49.984;10.672;2023-09-19T01:09:03;17.10;99.90
30134;DHT22;16946;49.984;10.672;2023-09-19T01:09:34;17.10;99.90
30134;DHT22;16946;49.984;10.672;2023-09-19T01:10:06;17.10;99.90
30134;DHT22;16946;49.984;10.672;2023-09-19T01:10:46;17.10;99.90
30134;DHT22;16946;49.984;10.672;2023-09-19T01:11:30;17.00;99.90
30134;DHT22;16946;49.984;10.672;2023-09-19T01:12:04;17.00;99.90
30134;DHT22;16946;49.984;10.672;2023-09-19T01:12:55;17.00;99.90
30134;DHT22;16946;49.984;10.672;2023-09-19T01:13:37;17.00;99.90
30134;DHT22;16946;49.984;10.672;2023-09-19T01:15:05;17.10;99.90
30134;DHT22;16946;49.984;10.672;2023-09-19T01:17:25;17.00;99.90
30134;DHT22;16946;49.984;10.672;2023-09-19T01:18:02;17.10;99.90
30134;DHT22;16946;49.984;10.672;2023-09-19T01:18:55;17.10;99.90
30134;DHT22;16946;49.984;10.672;2023-09-19T01:19:56;17.10;99.90
30134;DHT22;16946;49.984;10.672;2023-09-19T01:23:20;17.00;99.90
30134;DHT22;16946;49.984;10.672;2023-09-19T01:24:22;17.10;99.90
30134;DHT22;16946;49.984;10.672;2023-09-19T01:30:17;17.20;99.90
30134;DHT22;16946;49.984;10.672;2023-09-19T01:30:51;17.20;99.90
30134;DHT22;16946;49.984;10.672;2023-09-19T01:31:28;17.20;99.90
30134;DHT22;16946;49.984;10.672;2023-09-19T01:32:04;17.20;99.90
30134;DHT22;16946;49.984;10.672;2023-09-19T01:32:36;17.20;99.90
30134;DHT22;16946;49.984;10.672;2023-09-19T01:33:08;17.20;99.90
30134;DHT22;16946;49.984;10.672;2023-09-19T01:33:58;17.20;99.90
30134;DHT22;16946;49.984;10.672;2023-09-19T01:35:23;17.20;99.90
30134;DHT22;16946;49.984;10.672;2023-09-19T01:35:54;17.20;99.90
30134;DHT22;16946;49.984;10.672;2023-09-19T01:36:30;17.20;99.90
30134;DHT22;16946;49.984;10.672;2023-09-19T01:37:04;17.20;99.90
30134;DHT22;16946;49.984;10.672;2023-09-19T01:37:35;17.20;99.90
30134;DHT22;16946;49.984;10.672;2023-09-19T01:38:08;17.30;99.90
30134;DHT22;16946;49.984;10.672;2023-09-19T01:38:42;17.30;99.90
30134;DHT22;16946;49.984;10.672;2023-09-19T01:39:13;17.30;99.90
30134;DHT22;16946;49.984;10.672;2023-09-19T01:39:49;17.30;99.90
30134;DHT22;16946;49.984;10.672;2023-09-19T01:40:21;17.30;99.90
30134;DHT22;16946;49.984;10.672;2023-09-19T01:41:06;17.30;99.90
30134;DHT22;16946;49.984;10.672;2023-09-19T01:41:56;17.30;99.90
30134;DHT22;16946;49.984;10.672;2023-09-19T01:42:57;17.30;99.90
30134;DHT22;16946;49.984;10.672;2023-09-19T01:43:42;17.30;99.90
30134;DHT22;16946;49.984;10.672;2023-09-19T01:44:22;17.30;99.90
30134;DHT22;16946;49.984;10.672;2023-09-19T01:46:16;17.30;99.90
30134;DHT22;16946;49.984;10.672;2023-09-19T01:46:50;17.30;99.90
30134;DHT22;16946;49.984;10.672;2023-09-19T01:47:37;17.40;99.90
30134;DHT22;16946;49.984;10.672;2023-09-19T01:48:16;17.30;99.90
30134;DHT22;16946;49.984;10.672;2023-09-19T01:48:54;17.30;99.90
30134;DHT22;16946;49.984;10.672;2023-09-19T01:49:41;17.30;99.90
30134;DHT22;16946;49.984;10.672;2023-09-19T01:50:34;17.30;99.90
30134;DHT22;16946;49.984;10.672;2023-09-19T01:51:11;17.30;99.90
30134;DHT22;16946;49.984;10.672;2023-09-19T01:51:54;17.30;99.90
30134;DHT22;16946;49.984;10.672;2023-09-19T01:52:30;17.30;99.90
30134;DHT22;16946;49.984;10.672;2023-09-19T01:53:15;17.30;99.90
30134;DHT22;16946;49.984;10.672;2023-09-19T01:54:01;17.40;99.90
30134;DHT22;16946;49.984;10.672;2023-09-19T01:54:39;17.40;99.90
30134;DHT22;16946;49.984;10.672;2023-09-19T01:55:12;17.40;99.90
30134;DHT22;16946;49.984;10.672;2023-09-19T01:55:48;17.40;99.90
30134;DHT22;16946;49.984;10.672;2023-09-19T01:56:29;17.30;99.90
30134;DHT22;16946;49.984;10.672;2023-09-19T01:57:14;17.30;99.90
30134;DHT22;16946;49.984;10.672;2023-09-19T01:58:06;17.40;99.90
30134;DHT22;16946;49.984;10.672;2023-09-19T01:58:41;17.40;99.90
30134;DHT22;16946;49.984;10.672;2023-09-19T01:59:17;17.40;99.90
30134;DHT22;16946;49.984;10.672;2023-09-19T01:59:57;17.40;99.90
30134;DHT22;16946;49.984;10.672;2023-09-19T02:00:32;17.40;99.90
30134;DHT22;16946;49.984;10.672;2023-09-19T02:01:04;17.40;99.90
30134;DHT22;16946;49.984;10.672;2023-09-19T02:01:37;17.40;99.90
30134;DHT22;16946;49.984;10.672;2023-09-19T02:02:08;17.40;99.90
30134;DHT22;16946;49.984;10.672;2023-09-19T02:02:44;17.40;99.90
30134;DHT22;16946;49.984;10.672;2023-09-19T02:03:15;17.40;99.90
30134;DHT22;16946;49.984;10.672;2023-09-19T02:03:48;17.40;99.90
30134;DHT22;16946;49.984;10.672;2023-09-19T02:04:20;17.40;99.90
30134;DHT22;16946;49.984;10.672;2023-09-19T02:04:50;17.50;99.90
30134;DHT22;16946;49.984;10.672;2023-09-19T02:05:24;17.50;99.90
30134;DHT22;16946;49.984;10.672;2023-09-19T02:05:55;17.50;99.90
30134;DHT22;16946;49.984;10.672;2023-09-19T02:06:26;17.60;99.90
30134;DHT22;16946;49.984;10.672;2023-09-19T02:06:57;17.60;99.90
30134;DHT22;16946;49.984;10.672;2023-09-19T02:07:28;17.50;99.90
30134;DHT22;16946;49.984;10.672;2023-09-19T02:08:01;17.50;99.90
30134;DHT22;16946;49.984;10.672;2023-09-19T02:08:33;17.40;99.90
30134;DHT22;16946;49.984;10.672;2023-09-19T02:09:04;17.40;99.90
30134;DHT22;16946;49.984;10.672;2023-09-19T02:09:35;17.40;99.90
30134;DHT22;16946;49.984;10.672;2023-09-19T02:10:08;17.40;99.90
30134;DHT22;16946;49.984;10.672;2023-09-19T02:10:42;17.40;99.90
30134;DHT22;16946;49.984;10.672;2023-09-19T02:11:13;17.40;99.90
30134;DHT22;16946;49.984;10.672;2023-09-19T02:11:43;17.40;99.90
30134;DHT22;16946;49.984;10.672;2023-09-19T02:12:14;17.30;99.90
30134;DHT22;16946;49.984;10.672;2023-09-19T02:12:45;17.30;99.90
30134;DHT22;16946;49.984;10.672;2023-09-19T02:13:17;17.30;99.90
30134;DHT22;16946;49.984;10.672;2023-09-19T02:13:50;17.30;99.90
30134;DHT22;16946;49.984;10.672;2023-09-19T02:14:24;17.30;99.90
30134;DHT22;16946;49.984;10.672;2023-09-19T02:14:55;17.30;99.90
30134;DHT22;16946;49.984;10.672;2023-09-19T02:15:27;17.30;99.90
30134;DHT22;16946;49.984;10.672;2023-09-19T02:15:58;17.30;99.90
30134;DHT22;16946;49.984;10.672;2023-09-19T02:16:29;17.30;99.90
30134;DHT22;16946;49.984;10.672;2023-09-19T02:17:00;17.30;99.90
30134;DHT22;16946;49.984;10.672;2023-09-19T02:17:30;17.30;99.90
30134;DHT22;16946;49.984;10.672;2023-09-19T02:18:01;17.30;99.90
30134;DHT22;16946;49.984;10.672;2023-09-19T02:18:33;17.30;99.90
30134;DHT22;16946;49.984;10.672;2023-09-19T02:19:07;17.30;99.90
30134;DHT22;16946;49.984;10.672;2023-09-19T02:19:38;17.30;99.90
30134;DHT22;16946;49.984;10.672;2023-09-19T02:20:11;17.30;99.90
30134;DHT22;16946;49.984;10.672;2023-09-19T02:20:45;17.30;99.90
30134;DHT22;16946;49.984;10.672;2023-09-19T02:21:19;17.30;99.90
30134;DHT22;16946;49.984;10.672;2023-09-19T02:21:52;17.30;99.90
30134;DHT22;16946;49.984;10.672;2023-09-19T02:22:23;17.30;99.90
30134;DHT22;16946;49.984;10.672;2023-09-19T02:22:53;17.30;99.90
30134;DHT22;16946;49.984;10.672;2023-09-19T02:23:25;17.30;99.90
30134;DHT22;16946;49.984;10.672;2023-09-19T02:23:56;17.30;99.90
30134;DHT22;16946;49.984;10.672;2023-09-19T02:24:26;17.30;99.90
30134;DHT22;16946;49.984;10.672;2023-09-19T02:24:57;17.30;99.90
30134;DHT22;16946;49.984;10.672;2023-09-19T02:25:30;17.30;99.90
30134;DHT22;16946;49.984;10.672;2023-09-19T02:26:02;17.30;99.90
30134;DHT22;16946;49.984;10.672;2023-09-19T02:26:34;17.20;99.90
30134;DHT22;16946;49.984;10.672;2023-09-19T02:27:06;17.20;99.90
30134;DHT22;16946;49.984;10.672;2023-09-19T02:27:38;17.20;99.90
30134;DHT22;16946;49.984;10.672;2023-09-19T02:28:10;17.20;99.90
30134;DHT22;16946;49.984;10.672;2023-09-19T02:28:40;17.30;99.90
30134;DHT22;16946;49.984;10.672;2023-09-19T02:29:11;17.30;99.90
30134;DHT22;16946;49.984;10.672;2023-09-19T02:29:43;17.20;99.90
30134;DHT22;16946;49.984;10.672;2023-09-19T02:30:13;17.30;99.90
30134;DHT22;16946;49.984;10.672;2023-09-19T02:30:49;17.20;99.90
30134;DHT22;16946;49.984;10.672;2023-09-19T02:31:20;17.20;99.90
30134;DHT22;16946;49.984;10.672;2023-09-19T02:31:51;17.20;99.90
30134;DHT22;16946;49.984;10.672;2023-09-19T02:32:21;17.10;99.90
30134;DHT22;16946;49.984;10.672;2023-09-19T02:32:53;17.20;99.90
30134;DHT22;16946;49.984;10.672;2023-09-19T02:33:23;17.20;99.90
30134;DHT22;16946;49.984;10.672;2023-09-19T02:33:54;17.20;99.90
30134;DHT22;16946;49.984;10.672;2023-09-19T02:34:25;17.20;99.90
30134;DHT22;16946;49.984;10.672;2023-09-19T02:34:55;17.20;99.90
30134;DHT22;16946;49.984;10.672;2023-09-19T02:35:26;17.20;99.90
30134;DHT22;16946;49.984;10.672;2023-09-19T02:35:58;17.20;99.90
30134;DHT22;16946;49.984;10.672;2023-09-19T02:36:29;17.30;99.90
30134;DHT22;16946;49.984;10.672;2023-09-19T02:37:04;17.20;99.90
30134;DHT22;16946;49.984;10.672;2023-09-19T02:37:38;17.30;99.90
30134;DHT22;16946;49.984;10.672;2023-09-19T02:38:09;17.30;99.90
30134;DHT22;16946;49.984;10.672;2023-09-19T02:38:41;17.30;99.90
30134;DHT22;16946;49.984;10.672;2023-09-19T02:39:12;17.40;99.90
30134;DHT22;16946;49.984;10.672;2023-09-19T02:39:43;17.40;99.90
30134;DHT22;16946;49.984;10.672;2023-09-19T02:40:13;17.40;99.90
30134;DHT22;16946;49.984;10.672;2023-09-19T02:40:50;17.40;99.90
30134;DHT22;16946;49.984;10.672;2023-09-19T02:41:21;17.50;99.90
30134;DHT22;16946;49.984;10.672;2023-09-19T02:41:52;17.40;99.90
30134;DHT22;16946;49.984;10.672;2023-09-19T02:42:22;17.30;99.90
30134;DHT22;16946;49.984;10.672;2023-09-19T02:42:54;17.30;99.90
30134;DHT22;16946;49.984;10.672;2023-09-19T02:43:25;17.40;99.90
30134;DHT22;16946;49.984;10.672;2023-09-19T02:43:56;17.30;99.90
30134;DHT22;16946;49.984;10.672;2023-09-19T02:44:27;17.40;99.90
30134;DHT22;16946;49.984;10.672;2023-09-19T02:44:57;17.30;99.90
30134;DHT22;16946;49.984;10.672;2023-09-19T02:45:29;17.30;99.90
30134;DHT22;16946;49.984;10.672;2023-09-19T02:46:00;17.30;99.90
30134;DHT22;16946;49.984;10.672;2023-09-19T02:46:36;17.30;99.90
30134;DHT22;16946;49.984;10.672;2023-09-19T02:47:06;17.30;99.90
30134;DHT22;16946;49.984;10.672;2023-09-19T02:47:37;17.30;99.90
30134;DHT22;16946;49.984;10.672;2023-09-19T02:48:07;17.30;99.90
30134;DHT22;16946;49.984;10.672;2023-09-19T02:48:38;17.20;99.90
30134;DHT22;16946;49.984;10.672;2023-09-19T02:49:09;17.20;99.90
30134;DHT22;16946;49.984;10.672;2023-09-19T02:49:39;17.10;99.90
30134;DHT22;16946;49.984;10.672;2023-09-19T02:50:11;17.10;99.90
30134;DHT22;16946;49.984;10.672;2023-09-19T02:50:43;17.10;99.90
30134;DHT22;16946;49.984;10.672;2023-09-19T02:51:14;17.10;99.90
30134;DHT22;16946;49.984;10.672;2023-09-19T02:51:45;17.10;99.90
30134;DHT22;16946;49.984;10.672;2023-09-19T02:52:16;17.10;99.90
30134;DHT22;16946;49.984;10.672;2023-09-19T02:52:47;17.00;99.90
30134;DHT22;16946;49.984;10.672;2023-09-19T02:53:19;17.00;99.90
30134;DHT22;16946;49.984;10.672;2023-09-19T02:53:50;17.00;99.90
30134;DHT22;16946;49.984;10.672;2023-09-19T02:54:22;17.00;99.90
30134;DHT22;16946;49.984;10.672;2023-09-19T02:54:53;17.10;99.90
30134;DHT22;16946;49.984;10.672;2023-09-19T02:55:25;17.10;99.90
30134;DHT22;16946;49.984;10.672;2023-09-19T02:55:56;17.10;99.90
30134;DHT22;16946;49.984;10.672;2023-09-19T02:56:26;17.10;99.90
30134;DHT22;16946;49.984;10.672;2023-09-19T02:56:57;17.10;99.90
30134;DHT22;16946;49.984;10.672;2023-09-19T02:57:29;17.10;99.90
30134;DHT22;16946;49.984;10.672;2023-09-19T02:58:01;17.10;99.90
30134;DHT22;16946;49.984;10.672;2023-09-19T02:58:32;17.10;99.90
30134;DHT22;16946;49.984;10.672;2023-09-19T02:59:05;17.10;99.90
30134;DHT22;16946;49.984;10.672;2023-09-19T02:59:36;17.00;99.90
30134;DHT22;16946;49.984;10.672;2023-09-19T03:00:08;17.00;99.90
30134;DHT22;16946;49.984;10.672;2023-09-19T03:00:42;16.90;99.90
30134;DHT22;16946;49.984;10.672;2023-09-19T03:01:17;16.90;99.90
30134;DHT22;16946;49.984;10.672;2023-09-19T03:01:48;16.90;99.90
30134;DHT22;16946;49.984;10.672;2023-09-19T03:02:19;16.90;99.90
30134;DHT22;16946;49.984;10.672;2023-09-19T03:02:52;16.90;99.90
30134;DHT22;16946;49.984;10.672;2023-09-19T03:03:23;17.00;99.90
30134;DHT22;16946;49.984;10.672;2023-09-19T03:03:54;17.00;99.90
30134;DHT22;16946;49.984;10.672;2023-09-19T03:04:25;17.00;99.90
30134;DHT22;16946;49.984;10.672;2023-09-19T03:04:57;17.00;99.90
30134;DHT22;16946;49.984;10.672;2023-09-19T03:05:30;17.00;99.90
30134;DHT22;16946;49.984;10.672;2023-09-19T03:06:01;17.00;99.90
30134;DHT22;16946;49.984;10.672;2023-09-19T03:06:34;17.00;99.90
30134;DHT22;16946;49.984;10.672;2023-09-19T03:07:05;17.10;99.90
30134;DHT22;16946;49.984;10.672;2023-09-19T03:07:36;17.10;99.90
30134;DHT22;16946;49.984;10.672;2023-09-19T03:08:07;17.10;99.90
30134;DHT22;16946;49.984;10.672;2023-09-19T03:08:38;17.10;99.90
30134;DHT22;16946;49.984;10.672;2023-09-19T03:09:09;17.10;99.90
30134;DHT22;16946;49.984;10.672;2023-09-19T03:09:41;17.10;99.90
30134;DHT22;16946;49.984;10.672;2023-09-19T03:10:12;17.10;99.90
30134;DHT22;16946;49.984;10.672;2023-09-19T03:10:46;17.10;99.90
30134;DHT22;16946;49.984;10.672;2023-09-19T03:11:18;17.20;99.90
30134;DHT22;16946;49.984;10.672;2023-09-19T03:11:51;17.20;99.90
30134;DHT22;16946;49.984;10.672;2023-09-19T03:12:22;17.20;99.90
30134;DHT22;16946;49.984;10.672;2023-09-19T03:12:53;17.20;99.90
30134;DHT22;16946;49.984;10.672;2023-09-19T03:13:23;17.20;99.90
30134;DHT22;16946;49.984;10.672;2023-09-19T03:13:55;17.20;99.90
30134;DHT22;16946;49.984;10.672;2023-09-19T03:14:25;17.20;99.90
30134;DHT22;16946;49.984;10.672;2023-09-19T03:15:00;17.20;99.90
30134;DHT22;16946;49.984;10.672;2023-09-19T03:15:31;17.20;99.90
30134;DHT22;16946;49.984;10.672;2023-09-19T03:16:02;17.10;99.90
30134;DHT22;16946;49.984;10.672;2023-09-19T03:16:35;17.10;99.90
30134;DHT22;16946;49.984;10.672;2023-09-19T03:17:07;17.10;99.90
30134;DHT22;16946;49.984;10.672;2023-09-19T03:17:43;17.10;99.90
30134;DHT22;16946;49.984;10.672;2023-09-19T03:18:13;17.10;99.90
30134;DHT22;16946;49.984;10.672;2023-09-19T03:18:44;17.10;99.90
30134;DHT22;16946;49.984;10.672;2023-09-19T03:19:15;17.10;99.90
30134;DHT22;16946;49.984;10.672;2023-09-19T03:19:46;17.10;99.90
30134;DHT22;16946;49.984;10.672;2023-09-19T03:20:17;17.10;99.90
30134;DHT22;16946;49.984;10.672;2023-09-19T03:20:57;17.10;99.90
30134;DHT22;16946;49.984;10.672;2023-09-19T03:21:30;17.10;99.90
30134;DHT22;16946;49.984;10.672;2023-09-19T03:22:00;17.10;99.90
30134;DHT22;16946;49.984;10.672;2023-09-19T03:22:33;17.10;99.90
30134;DHT22;16946;49.984;10.672;2023-09-19T03:23:04;17.00;99.90
30134;DHT22;16946;49.984;10.672;2023-09-19T03:23:36;17.10;99.90
30134;DHT22;16946;49.984;10.672;2023-09-19T03:24:09;17.10;99.90
30134;DHT22;16946;49.984;10.672;2023-09-19T03:24:39;17.10;99.90
30134;DHT22;16946;49.984;10.672;2023-09-19T03:25:10;17.10;99.90
30134;DHT22;16946;49.984;10.672;2023-09-19T03:25:42;17.10;99.90
30134;DHT22;16946;49.984;10.672;2023-09-19T03:26:13;17.20;99.90
30134;DHT22;16946;49.984;10.672;2023-09-19T03:26:47;17.20;99.90
30134;DHT22;16946;49.984;10.672;2023-09-19T03:27:17;17.20;99.90
30134;DHT22;16946;49.984;10.672;2023-09-19T03:27:48;17.20;99.90
30134;DHT22;16946;49.984;10.672;2023-09-19T03:28:19;17.20;99.90
30134;DHT22;16946;49.984;10.672;2023-09-19T03:28:50;17.20;99.90
30134;DHT22;16946;49.984;10.672;2023-09-19T03:29:21;17.20;99.90
30134;DHT22;16946;49.984;10.672;2023-09-19T03:29:52;17.20;99.90
30134;DHT22;16946;49.984;10.672;2023-09-19T03:30:24;17.30;99.90
30134;DHT22;16946;49.984;10.672;2023-09-19T03:30:59;17.30;99.90
30134;DHT22;16946;49.984;10.672;2023-09-19T03:31:30;17.30;99.90
30134;DHT22;16946;49.984;10.672;2023-09-19T03:32:01;17.30;99.90
30134;DHT22;16946;49.984;10.672;2023-09-19T03:32:32;17.40;99.90
30134;DHT22;16946;49.984;10.672;2023-09-19T03:33:02;17.30;99.90
30134;DHT22;16946;49.984;10.672;2023-09-19T03:33:35;17.30;99.90
30134;DHT22;16946;49.984;10.672;2023-09-19T03:34:06;17.30;99.90
30134;DHT22;16946;49.984;10.672;2023-09-19T03:34:37;17.30;99.90
30134;DHT22;16946;49.984;10.672;2023-09-19T03:35:11;17.30;99.90
30134;DHT22;16946;49.984;10.672;2023-09-19T03:35:52;17.20;99.90
30134;DHT22;16946;49.984;10.672;2023-09-19T03:36:23;17.20;99.90
30134;DHT22;16946;49.984;10.672;2023-09-19T03:36:53;17.20;99.90
30134;DHT22;16946;49.984;10.672;2023-09-19T03:37:24;17.20;99.90
30134;DHT22;16946;49.984;10.672;2023-09-19T03:37:54;17.30;99.90
30134;DHT22;16946;49.984;10.672;2023-09-19T03:38:26;17.30;99.90